createdAt,value
2023-08-29T00:01:11.456Z,14.48
2023-08-29T00:03:38.058Z,14.56
2023-08-29T00:06:05.785Z,14.63
2023-08-29T00:08:35.690Z,14.55
2023-08-29T00:11:06.041Z,14.45
2023-08-29T00:13:32.618Z,14.37
2023-08-29T00:15:59.534Z,14.34
2023-08-29T00:18:25.981Z,14.33
2023-08-29T00:20:53.388Z,14.34
2023-08-29T00:23:19.847Z,14.34
2023-08-29T00:25:47.467Z,14.30
2023-08-29T00:28:14.629Z,14.28
2023-08-29T00:30:44.725Z,14.21
2023-08-29T00:33:12.214Z,14.17
2023-08-29T00:35:38.632Z,14.16
2023-08-29T00:38:05.424Z,14.20
2023-08-29T00:40:32.964Z,14.13
2023-08-29T00:43:00.745Z,14.15
2023-08-29T00:45:30.744Z,14.15
2023-08-29T00:47:57.605Z,14.11
2023-08-29T00:50:26.908Z,14.07
2023-08-29T00:52:59.417Z,14.05
2023-08-29T00:55:27.888Z,14.03
2023-08-29T00:57:57.777Z,14.00
2023-08-29T01:00:26.122Z,14.00
2023-08-29T01:02:52.638Z,13.97
2023-08-29T01:05:19.092Z,13.94
2023-08-29T01:07:45.629Z,13.87
2023-08-29T01:10:12.307Z,13.83
2023-08-29T01:12:48.968Z,13.79
2023-08-29T01:15:30.611Z,13.76
2023-08-29T01:18:02.185Z,13.85
2023-08-29T01:20:31.073Z,13.88
2023-08-29T01:23:24.715Z,13.85
2023-08-29T01:26:14.174Z,13.80
2023-08-29T01:28:44.441Z,13.71
2023-08-29T01:31:12.321Z,13.66
2023-08-29T01:33:40.344Z,13.63
2023-08-29T01:36:07.376Z,13.60
2023-08-29T01:38:33.854Z,13.57
2023-08-29T01:41:00.342Z,13.59
2023-08-29T01:43:26.848Z,13.68
2023-08-29T01:45:53.387Z,13.78
2023-08-29T01:48:19.912Z,13.72
2023-08-29T01:50:47.105Z,13.62
2023-08-29T01:53:13.845Z,13.54
2023-08-29T01:55:41.408Z,13.47
2023-08-29T01:58:12.340Z,13.44
2023-08-29T02:00:39.483Z,13.41
2023-08-29T02:03:06.249Z,13.35
2023-08-29T02:05:33.522Z,13.34
2023-08-29T02:08:00.258Z,13.35
2023-08-29T02:10:26.832Z,13.25
2023-08-29T02:12:53.293Z,13.23
2023-08-29T02:15:19.690Z,13.24
2023-08-29T02:17:46.331Z,13.23
2023-08-29T02:20:12.874Z,13.19
2023-08-29T02:22:39.297Z,13.16
2023-08-29T02:25:06.076Z,13.10
2023-08-29T02:27:35.915Z,13.05
2023-08-29T02:30:04.390Z,13.05
2023-08-29T02:32:30.855Z,13.08
2023-08-29T02:34:57.407Z,13.10
2023-08-29T02:37:25.115Z,13.11
2023-08-29T02:39:51.569Z,13.06
2023-08-29T02:42:18.020Z,13.03
2023-08-29T02:44:44.521Z,13.03
2023-08-29T02:47:10.973Z,13.11
2023-08-29T02:49:37.599Z,13.05
2023-08-29T02:52:05.222Z,13.01
2023-08-29T02:54:31.636Z,13.03
2023-08-29T02:56:58.145Z,12.94
2023-08-29T02:59:24.585Z,12.82
2023-08-29T03:01:51.029Z,12.76
2023-08-29T03:04:17.539Z,12.75
2023-08-29T03:06:43.985Z,12.76
2023-08-29T03:09:10.955Z,12.75
2023-08-29T03:11:37.460Z,12.69
2023-08-29T03:14:05.058Z,12.68
2023-08-29T03:16:32.135Z,12.68
2023-08-29T03:18:58.698Z,12.78
2023-08-29T03:21:25.167Z,12.81
2023-08-29T03:23:51.663Z,12.81
2023-08-29T03:26:18.186Z,12.74
2023-08-29T03:28:46.543Z,12.72
2023-08-29T03:31:14.477Z,12.79
2023-08-29T03:33:42.313Z,12.83
2023-08-29T03:36:09.654Z,12.75
2023-08-29T03:38:38.040Z,12.69
2023-08-29T03:41:05.910Z,12.64
2023-08-29T03:43:34.778Z,12.61
2023-08-29T03:46:03.623Z,12.61
2023-08-29T03:48:31.795Z,12.69
2023-08-29T03:51:08.331Z,12.72
2023-08-29T03:53:38.503Z,12.62
2023-08-29T03:56:06.787Z,12.59
2023-08-29T03:58:33.895Z,12.59
2023-08-29T04:01:00.816Z,12.56
2023-08-29T04:03:27.512Z,12.51
2023-08-29T04:05:54.266Z,12.44
2023-08-29T04:08:20.715Z,12.43
2023-08-29T04:10:47.763Z,12.38
2023-08-29T04:13:14.348Z,12.33
2023-08-29T04:15:40.917Z,12.33
2023-08-29T04:18:09.524Z,12.43
2023-08-29T04:20:36.404Z,12.40
2023-08-29T04:23:04.528Z,12.36
2023-08-29T04:25:31.591Z,12.37
2023-08-29T04:27:58.615Z,12.38
2023-08-29T04:30:25.132Z,12.43
2023-08-29T04:32:51.888Z,12.43
2023-08-29T04:35:18.676Z,12.37
2023-08-29T04:37:49.518Z,12.39
2023-08-29T04:40:17.960Z,12.31
2023-08-29T04:42:45.832Z,12.25
2023-08-29T04:45:12.391Z,12.22
2023-08-29T04:47:40.055Z,12.21
2023-08-29T04:50:07.732Z,12.24
2023-08-29T04:52:34.342Z,12.30
2023-08-29T04:55:01.067Z,12.22
2023-08-29T04:57:27.470Z,12.18
2023-08-29T04:59:53.958Z,12.19
2023-08-29T05:02:20.418Z,12.20
2023-08-29T05:04:48.706Z,12.13
2023-08-29T05:07:15.562Z,12.11
2023-08-29T05:09:42.424Z,12.11
2023-08-29T05:12:11.547Z,12.10
2023-08-29T05:14:41.461Z,12.10
2023-08-29T05:17:10.122Z,12.16
2023-08-29T05:19:36.770Z,12.26
2023-08-29T05:22:03.315Z,12.22
2023-08-29T05:24:29.994Z,12.14
2023-08-29T05:26:56.484Z,12.12
2023-08-29T05:29:22.988Z,12.15
2023-08-29T05:31:49.517Z,12.20
2023-08-29T05:34:16.099Z,12.27
2023-08-29T05:36:49.617Z,12.30
2023-08-29T05:39:16.277Z,12.31
2023-08-29T05:41:42.731Z,12.34
2023-08-29T05:44:15.525Z,12.37
2023-08-29T05:46:42.155Z,12.36
2023-08-29T05:49:09.131Z,12.38
2023-08-29T05:51:35.616Z,12.46
2023-08-29T05:54:02.126Z,12.48
2023-08-29T05:56:28.654Z,12.50
2023-08-29T05:58:55.073Z,12.51
2023-08-29T06:01:23.039Z,12.54
2023-08-29T06:03:54.893Z,12.66
2023-08-29T06:06:21.401Z,12.70
2023-08-29T06:08:48.082Z,12.75
2023-08-29T06:11:14.807Z,12.83
2023-08-29T06:13:41.226Z,12.97
2023-08-29T06:16:10.339Z,13.08
2023-08-29T06:18:36.909Z,13.12
2023-08-29T06:21:05.356Z,13.17
2023-08-29T06:23:31.888Z,13.24
2023-08-29T06:25:59.340Z,13.33
2023-08-29T06:28:34.959Z,13.39
2023-08-29T06:31:09.511Z,13.43
2023-08-29T06:33:39.382Z,13.48
2023-08-29T06:36:06.110Z,13.54
2023-08-29T06:38:35.497Z,13.59
2023-08-29T06:41:02.252Z,13.63
2023-08-29T06:43:28.759Z,13.61
2023-08-29T06:45:55.171Z,13.65
2023-08-29T06:48:21.732Z,13.71
2023-08-29T06:50:48.186Z,13.77
2023-08-29T06:53:17.378Z,13.81
2023-08-29T06:55:46.494Z,13.83
2023-08-29T06:58:12.931Z,13.86
2023-08-29T07:00:39.815Z,13.91
2023-08-29T07:03:06.389Z,13.93
2023-08-29T07:05:33.079Z,13.96
2023-08-29T07:08:00.744Z,13.98
2023-08-29T07:10:27.337Z,13.97
2023-08-29T07:12:53.885Z,13.95
2023-08-29T07:15:20.318Z,13.96
2023-08-29T07:17:46.845Z,14.03
2023-08-29T07:20:13.441Z,14.07
2023-08-29T07:22:44.349Z,14.12
2023-08-29T07:25:12.281Z,14.17
2023-08-29T07:27:39.193Z,14.21
2023-08-29T07:30:09.101Z,14.26
2023-08-29T07:32:35.609Z,14.33
2023-08-29T07:35:03.642Z,14.42
2023-08-29T07:37:30.305Z,14.50
2023-08-29T07:39:56.775Z,14.58
2023-08-29T07:42:23.484Z,14.66
2023-08-29T07:44:52.403Z,14.66
2023-08-29T07:47:18.933Z,14.71
2023-08-29T07:49:45.445Z,14.75
2023-08-29T07:52:12.064Z,14.79
2023-08-29T07:54:42.780Z,14.85
2023-08-29T07:57:09.447Z,14.90
2023-08-29T07:59:36.020Z,14.96
2023-08-29T08:02:02.577Z,15.04
2023-08-29T08:04:29.800Z,15.12
2023-08-29T08:06:56.264Z,15.17
2023-08-29T08:09:22.984Z,15.27
2023-08-29T08:11:49.596Z,15.39
2023-08-29T08:14:18.321Z,15.53
2023-08-29T08:16:44.933Z,15.63
2023-08-29T08:19:14.290Z,15.74
2023-08-29T08:21:41.024Z,15.88
2023-08-29T08:24:10.363Z,15.98
2023-08-29T08:26:37.040Z,16.04
2023-08-29T08:29:05.462Z,16.14
2023-08-29T08:31:32.516Z,16.20
2023-08-29T08:33:59.064Z,16.24
2023-08-29T08:36:25.659Z,16.26
2023-08-29T08:38:52.386Z,16.38
2023-08-29T08:41:19.844Z,16.46
2023-08-29T08:43:48.293Z,16.57
2023-08-29T08:46:17.406Z,16.59
2023-08-29T08:48:44.129Z,16.69
2023-08-29T08:51:12.429Z,16.76
2023-08-29T08:53:40.407Z,16.91
2023-08-29T08:56:09.120Z,16.94
2023-08-29T08:58:37.132Z,17.02
2023-08-29T09:01:04.259Z,17.05
2023-08-29T09:03:30.814Z,17.14
2023-08-29T09:06:00.200Z,17.18
2023-08-29T09:08:26.828Z,17.27
2023-08-29T09:10:54.516Z,17.25
2023-08-29T09:13:21.815Z,17.21
2023-08-29T09:15:48.564Z,17.26
2023-08-29T09:18:24.050Z,17.37
2023-08-29T09:20:52.880Z,17.45
2023-08-29T09:23:28.078Z,17.48
2023-08-29T09:25:54.918Z,17.44
2023-08-29T09:28:22.384Z,17.43
2023-08-29T09:30:50.946Z,17.49
2023-08-29T09:33:19.798Z,17.50
2023-08-29T09:35:46.645Z,17.57
2023-08-29T09:38:13.540Z,17.60
2023-08-29T09:40:50.447Z,17.62
2023-08-29T09:43:18.124Z,17.69
2023-08-29T09:45:52.462Z,17.74
2023-08-29T09:48:20.110Z,17.80
2023-08-29T09:50:48.203Z,17.85
2023-08-29T09:53:19.445Z,17.86
2023-08-29T09:55:48.171Z,17.91
2023-08-29T09:58:16.669Z,17.96
2023-08-29T10:00:43.764Z,17.98
2023-08-29T10:03:12.141Z,18.00
2023-08-29T10:05:44.112Z,18.07
2023-08-29T10:08:59.263Z,18.20
2023-08-29T10:11:28.700Z,18.23
2023-08-29T10:13:57.382Z,18.24
2023-08-29T10:16:24.767Z,18.34
2023-08-29T10:18:56.897Z,18.43
2023-08-29T10:21:24.926Z,18.57
2023-08-29T10:23:51.913Z,18.64
2023-08-29T10:26:18.751Z,18.70
2023-08-29T10:28:47.266Z,18.74
2023-08-29T10:31:14.198Z,18.72
2023-08-29T10:33:40.812Z,18.74
2023-08-29T10:36:09.767Z,18.78
2023-08-29T10:38:40.449Z,18.80
2023-08-29T10:41:12.170Z,18.96
2023-08-29T10:43:38.748Z,19.11
2023-08-29T10:46:11.316Z,19.07
2023-08-29T10:48:40.828Z,18.98
2023-08-29T10:51:12.549Z,18.95
2023-08-29T10:53:48.014Z,19.06
2023-08-29T10:56:15.321Z,19.01
2023-08-29T10:58:44.107Z,19.06
2023-08-29T11:01:26.169Z,19.15
2023-08-29T11:03:52.881Z,19.21
2023-08-29T11:06:21.071Z,19.10
2023-08-29T11:08:47.825Z,19.04
2023-08-29T11:11:20.433Z,19.20
2023-08-29T11:13:57.977Z,19.33
2023-08-29T11:16:25.477Z,19.44
2023-08-29T11:19:14.824Z,19.51
2023-08-29T11:21:44.140Z,19.50
2023-08-29T11:24:16.750Z,19.42
2023-08-29T11:26:47.972Z,19.39
2023-08-29T11:29:14.662Z,19.54
2023-08-29T11:31:43.905Z,19.62
2023-08-29T11:34:19.383Z,19.67
2023-08-29T11:36:51.940Z,19.69
2023-08-29T11:39:22.666Z,19.64
2023-08-29T11:41:57.139Z,19.65
2023-08-29T11:45:28.753Z,19.58
2023-08-29T11:47:24.794Z,19.59
2023-08-29T11:49:52.959Z,19.59
2023-08-29T11:52:25.375Z,19.63
2023-08-29T11:54:57.207Z,19.66
2023-08-29T11:57:24.390Z,19.69
2023-08-29T11:59:53.337Z,19.68
2023-08-29T12:02:22.521Z,19.63
2023-08-29T12:04:54.645Z,19.60
2023-08-29T12:07:21.329Z,19.55
2023-08-29T12:09:49.079Z,19.55
2023-08-29T12:12:37.386Z,19.58
2023-08-29T12:15:07.178Z,19.56
2023-08-29T12:17:35.235Z,19.54
2023-08-29T12:20:01.894Z,19.59
2023-08-29T12:22:35.677Z,19.60
2023-08-29T12:25:02.262Z,19.56
2023-08-29T12:27:29.055Z,19.57
2023-08-29T12:29:55.632Z,19.64
2023-08-29T12:32:29.003Z,19.71
2023-08-29T12:34:57.377Z,19.72
2023-08-29T12:37:25.625Z,19.69
2023-08-29T12:39:52.587Z,19.65
2023-08-29T12:42:19.188Z,19.68
2023-08-29T12:44:45.748Z,19.69
2023-08-29T12:47:12.160Z,19.87
2023-08-29T12:49:38.577Z,19.97
2023-08-29T12:52:05.370Z,20.02
2023-08-29T12:54:31.927Z,20.00
2023-08-29T12:56:58.321Z,20.08
2023-08-29T12:59:24.777Z,20.19
2023-08-29T13:01:54.481Z,20.12
2023-08-29T13:04:21.029Z,20.04
2023-08-29T13:06:47.425Z,20.15
2023-08-29T13:09:30.878Z,20.18
2023-08-29T13:12:03.246Z,20.31
2023-08-29T13:14:37.741Z,20.34
2023-08-29T13:17:05.307Z,20.35
2023-08-29T13:19:33.811Z,20.25
2023-08-29T13:22:01.773Z,20.35
2023-08-29T13:24:28.779Z,20.42
2023-08-29T13:26:55.340Z,20.46
2023-08-29T13:29:21.909Z,20.43
2023-08-29T13:31:50.585Z,20.39
2023-08-29T13:34:18.126Z,20.43
2023-08-29T13:36:44.637Z,20.44
2023-08-29T13:39:11.131Z,20.43
2023-08-29T13:41:37.589Z,20.39
2023-08-29T13:44:05.347Z,20.38
2023-08-29T13:46:31.992Z,20.39
2023-08-29T13:48:58.506Z,20.33
2023-08-29T13:51:27.768Z,20.32
2023-08-29T13:53:54.264Z,20.32
2023-08-29T13:56:20.740Z,20.25
2023-08-29T13:58:48.341Z,20.23
2023-08-29T14:01:14.836Z,20.21
2023-08-29T14:03:41.397Z,20.14
2023-08-29T14:06:07.927Z,20.10
2023-08-29T14:08:34.399Z,20.11
2023-08-29T14:11:05.555Z,20.05
2023-08-29T14:13:34.369Z,20.03
2023-08-29T14:16:04.379Z,20.01
2023-08-29T14:18:32.094Z,19.98
2023-08-29T14:20:58.737Z,19.91
2023-08-29T14:23:25.457Z,19.81
2023-08-29T14:25:51.966Z,19.75
2023-08-29T14:28:18.524Z,19.66
2023-08-29T14:30:45.865Z,19.52
2023-08-29T14:33:13.685Z,19.43
2023-08-29T14:35:40.532Z,19.33
2023-08-29T14:38:07.633Z,19.29
2023-08-29T14:40:34.553Z,19.18
2023-08-29T14:43:01.046Z,19.11
2023-08-29T14:45:27.812Z,19.00
2023-08-29T14:47:54.369Z,18.94
2023-08-29T14:50:21.530Z,18.87
2023-08-29T14:52:50.606Z,18.79
2023-08-29T14:55:21.969Z,18.76
2023-08-29T14:57:50.713Z,18.69
2023-08-29T15:00:17.374Z,18.65
2023-08-29T15:02:45.231Z,18.61
2023-08-29T15:05:13.068Z,18.64
2023-08-29T15:07:40.581Z,18.62
2023-08-29T15:10:08.026Z,18.59
2023-08-29T15:12:35.116Z,18.54
2023-08-29T15:15:02.405Z,18.53
2023-08-29T15:17:31.968Z,18.50
2023-08-29T15:19:58.617Z,18.45
2023-08-29T15:22:25.233Z,18.40
2023-08-29T15:24:53.846Z,18.40
2023-08-29T15:27:20.753Z,18.41
2023-08-29T15:29:47.262Z,18.41
2023-08-29T15:32:13.703Z,18.32
2023-08-29T15:34:40.256Z,18.23
2023-08-29T15:37:07.111Z,18.25
2023-08-29T15:39:34.176Z,18.27
2023-08-29T15:42:00.904Z,18.29
2023-08-29T15:44:33.331Z,18.26
2023-08-29T15:47:00.525Z,18.28
2023-08-29T15:49:39.115Z,18.29
2023-08-29T15:52:08.499Z,18.27
2023-08-29T15:54:34.945Z,18.25
2023-08-29T15:57:04.812Z,18.26
2023-08-29T15:59:31.299Z,18.24
2023-08-29T16:01:58.677Z,18.24
2023-08-29T16:04:31.364Z,18.23
2023-08-29T16:07:00.928Z,18.23
2023-08-29T16:09:30.756Z,18.21
2023-08-29T16:12:02.378Z,18.21
2023-08-29T16:14:29.895Z,18.23
2023-08-29T16:16:57.942Z,18.26
2023-08-29T16:19:24.758Z,18.28
2023-08-29T16:22:17.783Z,18.34
2023-08-29T16:27:25.844Z,18.46
2023-08-29T16:29:55.841Z,18.49
2023-08-29T16:32:22.287Z,18.51
2023-08-29T16:34:48.994Z,18.57
2023-08-29T16:37:15.471Z,18.64
2023-08-29T16:39:41.946Z,18.67
2023-08-29T16:42:08.474Z,18.73
2023-08-29T16:44:35.463Z,18.78
2023-08-29T16:47:02.049Z,18.78
2023-08-29T16:49:28.717Z,18.74
2023-08-29T16:51:56.195Z,18.76
2023-08-29T16:54:29.527Z,18.80
2023-08-29T16:56:56.202Z,18.85
2023-08-29T16:59:22.739Z,18.94
2023-08-29T17:01:49.345Z,18.97
2023-08-29T17:04:15.842Z,18.97
2023-08-29T17:06:42.648Z,18.97
2023-08-29T17:09:09.400Z,18.94
2023-08-29T17:11:35.998Z,18.94
2023-08-29T17:14:03.436Z,18.95
2023-08-29T17:16:30.675Z,18.90
2023-08-29T17:18:57.349Z,18.91
2023-08-29T17:21:23.908Z,18.90
2023-08-29T17:23:50.571Z,18.89
2023-08-29T17:26:19.023Z,18.88
2023-08-29T17:28:45.756Z,18.85
2023-08-29T17:31:12.540Z,18.84
2023-08-29T17:33:39.199Z,18.80
2023-08-29T17:36:07.145Z,18.75
2023-08-29T17:38:33.796Z,18.65
2023-08-29T17:41:01.706Z,18.58
2023-08-29T17:43:29.299Z,18.50
2023-08-29T17:45:57.583Z,18.45
2023-08-29T17:48:27.000Z,18.43
2023-08-29T17:50:58.156Z,18.34
2023-08-29T17:53:25.053Z,18.26
2023-08-29T17:55:54.479Z,18.22
2023-08-29T17:58:25.146Z,18.23
2023-08-29T18:00:53.226Z,18.17
2023-08-29T18:03:20.345Z,18.13
2023-08-29T18:05:51.597Z,18.10
2023-08-29T18:08:19.618Z,18.04
2023-08-29T18:10:49.659Z,18.00
2023-08-29T18:13:17.894Z,17.99
2023-08-29T18:15:44.397Z,17.91
2023-08-29T18:18:21.631Z,17.91
2023-08-29T18:20:51.170Z,17.87
2023-08-29T18:23:19.636Z,17.79
2023-08-29T18:25:46.915Z,17.76
2023-08-29T18:28:13.397Z,17.69
2023-08-29T18:30:40.045Z,17.66
2023-08-29T18:33:06.980Z,17.59
2023-08-29T18:35:37.320Z,17.55
2023-08-29T18:38:07.349Z,17.48
2023-08-29T18:40:34.125Z,17.44
2023-08-29T18:43:01.155Z,17.38
2023-08-29T18:45:27.648Z,17.32
2023-08-29T18:47:54.149Z,17.31
2023-08-29T18:50:23.438Z,17.26
2023-08-29T18:52:49.864Z,17.20
2023-08-29T18:55:19.264Z,17.11
2023-08-29T18:57:46.298Z,17.10
2023-08-29T19:00:13.667Z,17.08
2023-08-29T19:02:40.857Z,17.05
2023-08-29T19:05:08.761Z,17.00
2023-08-29T19:07:38.867Z,16.91
2023-08-29T19:10:06.660Z,16.92
2023-08-29T19:12:33.522Z,16.86
2023-08-29T19:15:01.845Z,16.84
2023-08-29T19:17:29.103Z,16.78
2023-08-29T19:19:55.573Z,16.74
2023-08-29T19:22:22.533Z,16.70
2023-08-29T19:24:49.093Z,16.70
2023-08-29T19:27:23.863Z,16.61
2023-08-29T19:29:53.611Z,16.52
2023-08-29T19:32:20.179Z,16.46
2023-08-29T19:34:47.320Z,16.38
2023-08-29T19:37:13.918Z,16.34
2023-08-29T19:39:40.548Z,16.29
2023-08-29T19:42:07.105Z,16.26
2023-08-29T19:44:33.550Z,16.28
2023-08-29T19:47:02.758Z,16.17
2023-08-29T19:49:38.092Z,16.12
2023-08-29T19:52:06.089Z,16.08
2023-08-29T19:54:32.650Z,16.02
2023-08-29T19:56:59.269Z,16.05
2023-08-29T19:59:26.027Z,16.08
2023-08-29T20:01:52.458Z,16.07
2023-08-29T20:04:19.067Z,16.07
2023-08-29T20:06:45.499Z,16.04
2023-08-29T20:09:12.537Z,16.03
2023-08-29T20:11:39.326Z,16.00
2023-08-29T20:14:05.879Z,15.93
2023-08-29T20:16:32.479Z,15.91
2023-08-29T20:18:58.981Z,15.85
2023-08-29T20:21:25.462Z,15.72
2023-08-29T20:24:02.043Z,15.65
2023-08-29T20:26:30.565Z,15.60
2023-08-29T20:28:57.232Z,15.52
2023-08-29T20:31:23.973Z,15.48
2023-08-29T20:33:50.826Z,15.45
2023-08-29T20:36:19.545Z,15.47
2023-08-29T20:38:46.079Z,15.44
2023-08-29T20:41:12.523Z,15.43
2023-08-29T20:43:39.059Z,15.38
2023-08-29T20:46:05.518Z,15.32
2023-08-29T20:48:32.289Z,15.25
2023-08-29T20:51:02.604Z,15.22
2023-08-29T20:53:35.722Z,15.22
2023-08-29T20:56:03.372Z,15.15
2023-08-29T20:58:29.796Z,15.15
2023-08-29T21:01:00.481Z,15.07
2023-08-29T21:03:32.786Z,15.02
2023-08-29T21:05:59.584Z,14.98
2023-08-29T21:08:26.778Z,14.96
2023-08-29T21:10:54.338Z,14.94
2023-08-29T21:13:28.204Z,14.89
2023-08-29T21:15:54.697Z,14.87
2023-08-29T21:18:21.143Z,14.87
2023-08-29T21:20:55.880Z,14.83
2023-08-29T21:23:23.375Z,14.81
2023-08-29T21:25:51.051Z,14.78
2023-08-29T21:28:19.062Z,14.75
2023-08-29T21:30:46.111Z,14.73
2023-08-29T21:33:13.751Z,14.71
2023-08-29T21:35:41.851Z,14.71
2023-08-29T21:38:09.367Z,14.71
2023-08-29T21:40:43.766Z,14.69
2023-08-29T21:43:15.480Z,14.71
2023-08-29T21:45:42.152Z,14.69
2023-08-29T21:48:10.790Z,14.62
2023-08-29T21:50:42.369Z,14.62
2023-08-29T21:53:11.121Z,14.60
2023-08-29T21:55:39.244Z,14.62
2023-08-29T21:58:06.980Z,14.63
2023-08-29T22:00:35.373Z,14.63
2023-08-29T22:03:03.205Z,14.58
2023-08-29T22:05:31.364Z,14.54
2023-08-29T22:08:03.904Z,14.53
2023-08-29T22:10:30.443Z,14.52
2023-08-29T22:12:56.852Z,14.52
2023-08-29T22:15:28.856Z,14.52
2023-08-29T22:17:55.507Z,14.55
2023-08-29T22:20:22.067Z,14.54
2023-08-29T22:22:51.256Z,14.48
2023-08-29T22:25:18.449Z,14.48
2023-08-29T22:27:44.923Z,14.44
2023-08-29T22:30:12.586Z,14.42
2023-08-29T22:32:39.062Z,14.44
2023-08-29T22:35:06.307Z,14.50
2023-08-29T22:37:32.975Z,14.51
2023-08-29T22:39:59.482Z,14.50
2023-08-29T22:42:25.973Z,14.53
2023-08-29T22:44:52.578Z,14.52
2023-08-29T22:47:19.915Z,14.54
2023-08-29T22:49:46.493Z,14.53
2023-08-29T22:52:14.848Z,14.52
2023-08-29T22:54:41.858Z,14.52
2023-08-29T22:57:08.275Z,14.51
2023-08-29T22:59:34.907Z,14.48
2023-08-29T23:02:04.268Z,14.46
2023-08-29T23:04:30.751Z,14.42
2023-08-29T23:07:04.218Z,14.46
2023-08-29T23:09:34.543Z,14.47
2023-08-29T23:12:02.065Z,14.48
2023-08-29T23:14:29.206Z,14.50
2023-08-29T23:16:56.414Z,14.54
2023-08-29T23:19:26.525Z,14.52
2023-08-29T23:21:53.988Z,14.47
2023-08-29T23:24:21.526Z,14.45
2023-08-29T23:26:50.967Z,14.41
2023-08-29T23:29:18.357Z,14.37
2023-08-29T23:31:45.215Z,14.35
2023-08-29T23:34:11.781Z,14.32
2023-08-29T23:36:38.196Z,14.31
2023-08-29T23:39:04.915Z,14.31
2023-08-29T23:41:31.398Z,14.27
2023-08-29T23:43:57.787Z,14.27
2023-08-29T23:46:24.305Z,14.26
2023-08-29T23:48:50.891Z,14.23
2023-08-29T23:51:17.423Z,14.21
2023-08-29T23:53:43.929Z,14.19
2023-08-29T23:56:10.482Z,14.15
2023-08-29T23:58:37.003Z,14.18
